createdAt,value
2018-05-12T00:00:32.852Z,82.10
2018-05-12T00:03:13.981Z,83.30
2018-05-12T00:05:55.115Z,83.50
2018-05-12T00:08:35.408Z,83.30
2018-05-12T00:11:16.509Z,83.80
2018-05-12T00:13:56.835Z,83.90
2018-05-12T00:16:37.247Z,84.00
2018-05-12T00:19:17.554Z,84.20
2018-05-12T00:21:58.692Z,84.20
2018-05-12T00:24:39.863Z,84.20
2018-05-12T00:27:21.724Z,84.30
2018-05-12T00:30:02.469Z,83.90
2018-05-12T00:32:42.768Z,83.50
2018-05-12T00:35:23.169Z,83.30
2018-05-12T00:38:03.484Z,82.80
2018-05-12T00:40:43.936Z,83.20
2018-05-12T00:43:24.704Z,84.20
2018-05-12T00:46:05.916Z,84.30
2018-05-12T00:48:47.744Z,84.30
2018-05-12T00:51:27.996Z,84.40
2018-05-12T00:54:08.405Z,84.50
2018-05-12T00:56:48.770Z,84.40
2018-05-12T00:59:29.914Z,84.50
2018-05-12T01:02:11.044Z,85.00
2018-05-12T01:04:52.294Z,84.90
2018-05-12T01:07:32.686Z,85.40
2018-05-12T01:10:13.749Z,85.80
2018-05-12T01:12:54.438Z,85.80
2018-05-12T01:15:39.825Z,85.70
2018-05-12T01:18:20.156Z,85.80
2018-05-12T01:21:01.418Z,86.00
2018-05-12T01:23:41.890Z,86.30
2018-05-12T01:26:22.763Z,86.20
2018-05-12T01:29:03.080Z,85.80
2018-05-12T01:31:43.407Z,85.30
2018-05-12T01:34:26.629Z,85.30
2018-05-12T01:37:07.701Z,86.10
2018-05-12T01:39:48.183Z,86.70
2018-05-12T01:42:28.610Z,86.80
2018-05-12T01:45:08.942Z,87.00
2018-05-12T01:47:49.352Z,87.10
2018-05-12T01:50:29.748Z,86.70
2018-05-12T01:53:10.068Z,85.70
2018-05-12T01:55:52.045Z,85.60
2018-05-12T01:58:32.414Z,85.50
2018-05-12T02:01:35.041Z,85.50
2018-05-12T02:04:15.485Z,85.70
2018-05-12T02:06:55.820Z,85.80
2018-05-12T02:09:36.301Z,86.00
2018-05-12T02:12:17.391Z,86.80
2018-05-12T02:14:58.703Z,86.90
2018-05-12T02:17:39.013Z,86.80
2018-05-12T02:20:19.356Z,87.00
2018-05-12T02:22:59.690Z,87.10
2018-05-12T02:25:40.175Z,86.80
2018-05-12T02:28:21.510Z,85.90
2018-05-12T02:31:02.152Z,85.70
2018-05-12T02:33:43.250Z,86.30
2018-05-12T02:36:24.049Z,86.30
2018-05-12T02:39:04.553Z,85.90
2018-05-12T02:41:45.029Z,86.10
2018-05-12T02:44:25.419Z,86.80
2018-05-12T02:47:05.758Z,86.90
2018-05-12T02:49:46.048Z,87.30
2018-05-12T02:52:26.437Z,87.50
2018-05-12T02:55:06.810Z,87.90
2018-05-12T02:57:47.121Z,87.80
2018-05-12T03:00:27.521Z,87.90
2018-05-12T03:03:07.901Z,87.80
2018-05-12T03:05:49.114Z,87.80
2018-05-12T03:08:29.418Z,87.70
2018-05-12T03:11:09.809Z,87.50
2018-05-12T03:13:50.810Z,87.50
2018-05-12T03:16:31.188Z,87.70
2018-05-12T03:19:11.510Z,87.90
2018-05-12T03:21:52.319Z,87.50
2018-05-12T03:24:32.667Z,87.00
2018-05-12T03:27:13.132Z,87.30
2018-05-12T03:29:54.213Z,87.80
2018-05-12T03:32:34.676Z,88.00
2018-05-12T03:35:15.005Z,88.10
2018-05-12T03:37:55.208Z,87.90
2018-05-12T03:40:35.536Z,87.80
2018-05-12T03:43:15.764Z,87.70
2018-05-12T03:45:56.104Z,87.60
2018-05-12T03:48:36.444Z,87.50
2018-05-12T03:51:18.472Z,87.40
2018-05-12T03:53:59.276Z,87.20
2018-05-12T03:56:39.449Z,86.80
2018-05-12T03:59:20.632Z,86.90
2018-05-12T04:02:01.342Z,87.50
2018-05-12T04:05:00.473Z,87.50
2018-05-12T04:07:58.813Z,87.60
2018-05-12T04:13:46.470Z,87.20
2018-05-12T04:16:26.935Z,86.70
2018-05-12T04:19:07.397Z,86.70
2018-05-12T04:21:47.786Z,87.20
2018-05-12T04:24:28.177Z,87.60
2018-05-12T04:27:08.523Z,87.60
2018-05-12T04:29:48.947Z,87.50
2018-05-12T04:32:29.505Z,87.50
2018-05-12T04:35:10.624Z,87.70
2018-05-12T04:37:52.449Z,88.00
2018-05-12T04:40:32.850Z,88.10
2018-05-12T04:43:13.384Z,88.10
2018-05-12T04:45:54.348Z,88.20
2018-05-12T04:48:34.859Z,88.00
2018-05-12T04:51:15.980Z,88.20
2018-05-12T04:53:56.313Z,88.20
2018-05-12T04:56:36.877Z,88.80
2018-05-12T04:59:17.226Z,87.30
2018-05-12T05:01:57.669Z,87.50
2018-05-12T05:04:38.047Z,87.70
2018-05-12T05:07:18.473Z,87.70
2018-05-12T05:09:59.279Z,87.50
2018-05-12T05:12:39.578Z,87.70
2018-05-12T05:15:19.834Z,87.50
2018-05-12T05:18:00.109Z,87.50
2018-05-12T05:20:40.298Z,87.30
2018-05-12T05:23:21.257Z,87.30
2018-05-12T05:26:02.318Z,87.60
2018-05-12T05:28:42.636Z,87.50
2018-05-12T05:31:25.096Z,89.20
2018-05-12T05:34:05.524Z,87.80
2018-05-12T05:36:45.861Z,87.90
2018-05-12T05:39:26.292Z,87.40
2018-05-12T05:42:06.710Z,87.10
2018-05-12T05:44:47.045Z,87.20
2018-05-12T05:47:28.193Z,87.10
2018-05-12T05:50:08.878Z,87.10
2018-05-12T05:52:49.261Z,86.90
2018-05-12T05:55:29.685Z,86.60
2018-05-12T05:58:10.025Z,86.50
2018-05-12T06:00:50.817Z,86.30
2018-05-12T06:03:31.010Z,86.30
2018-05-12T06:06:11.173Z,86.40
2018-05-12T06:08:52.572Z,86.50
2018-05-12T06:11:33.045Z,86.60
2018-05-12T06:14:13.414Z,86.40
2018-05-12T06:16:54.293Z,86.70
2018-05-12T06:19:34.491Z,87.00
2018-05-12T06:22:14.829Z,87.10
2018-05-12T06:24:55.060Z,86.70
2018-05-12T06:27:35.493Z,86.50
2018-05-12T06:30:15.889Z,86.80
2018-05-12T06:32:56.227Z,87.10
2018-05-12T06:35:36.564Z,87.30
2018-05-12T06:38:17.024Z,87.10
2018-05-12T06:40:57.358Z,87.10
2018-05-12T06:43:38.299Z,86.80
2018-05-12T06:46:18.680Z,86.30
2018-05-12T06:49:00.175Z,86.20
2018-05-12T06:51:41.444Z,86.30
2018-05-12T06:54:23.663Z,85.50
2018-05-12T06:57:04.817Z,85.00
2018-05-12T06:59:45.315Z,84.80
2018-05-12T07:02:26.685Z,85.00
2018-05-12T07:05:07.092Z,85.00
2018-05-12T07:07:47.532Z,84.60
2018-05-12T07:10:27.879Z,84.60
2018-05-12T07:13:08.984Z,83.30
2018-05-12T07:15:49.310Z,83.30
2018-05-12T07:18:30.613Z,83.50
2018-05-12T07:21:11.570Z,83.20
2018-05-12T07:23:53.017Z,83.10
2018-05-12T07:26:34.170Z,83.30
2018-05-12T07:29:15.136Z,83.40
2018-05-12T07:31:55.594Z,83.40
2018-05-12T07:34:35.948Z,83.30
2018-05-12T07:37:17.129Z,83.60
2018-05-12T07:39:57.786Z,83.50
2018-05-12T07:42:38.300Z,83.70
2018-05-12T07:45:20.226Z,82.50
2018-05-12T07:48:00.541Z,81.50
2018-05-12T07:50:41.127Z,81.70
2018-05-12T07:53:22.461Z,81.00
2018-05-12T07:56:02.910Z,80.20
2018-05-12T07:58:43.220Z,80.60
2018-05-12T08:01:24.917Z,80.20
2018-05-12T08:04:05.770Z,80.60
2018-05-12T08:06:46.100Z,80.20
2018-05-12T08:09:26.561Z,79.80
2018-05-12T08:12:06.896Z,79.60
2018-05-12T08:14:47.368Z,79.20
2018-05-12T08:17:27.696Z,78.60
2018-05-12T08:20:08.006Z,78.30
2018-05-12T08:22:48.349Z,77.70
2018-05-12T08:25:28.681Z,77.90
2018-05-12T08:28:09.861Z,76.70
2018-05-12T08:30:50.123Z,76.60
2018-05-12T08:33:31.343Z,75.50
2018-05-12T08:36:11.646Z,74.20
2018-05-12T08:38:52.620Z,74.60
2018-05-12T08:41:32.956Z,74.00
2018-05-12T08:44:13.141Z,73.90
2018-05-12T08:46:54.840Z,74.40
2018-05-12T08:49:35.260Z,74.30
2018-05-12T08:52:16.557Z,74.70
2018-05-12T08:54:56.962Z,73.30
2018-05-12T08:57:37.264Z,73.20
2018-05-12T09:00:17.656Z,74.00
2018-05-12T09:02:57.940Z,71.80
2018-05-12T09:05:40.049Z,72.50
2018-05-12T09:08:21.531Z,72.70
2018-05-12T09:11:01.789Z,72.60
2018-05-12T09:13:42.075Z,72.30
2018-05-12T09:16:22.933Z,72.90
2018-05-12T09:19:03.330Z,72.30
2018-05-12T09:21:44.113Z,73.10
2018-05-12T09:24:24.921Z,74.30
2018-05-12T09:27:06.143Z,74.30
2018-05-12T09:29:46.618Z,74.70
2018-05-12T09:32:26.943Z,74.50
2018-05-12T09:35:07.281Z,76.10
2018-05-12T09:37:47.638Z,74.80
2018-05-12T09:40:27.959Z,74.30
2018-05-12T09:43:09.497Z,74.10
2018-05-12T09:45:51.381Z,74.00
2018-05-12T09:48:35.449Z,74.10
2018-05-12T09:51:15.669Z,74.60
2018-05-12T09:53:57.302Z,73.10
2018-05-12T09:56:37.537Z,73.20
2018-05-12T09:59:17.931Z,73.40
2018-05-12T10:01:58.233Z,73.90
2018-05-12T10:04:38.557Z,72.20
2018-05-12T10:07:18.876Z,72.30
2018-05-12T10:09:59.272Z,72.40
2018-05-12T10:12:39.618Z,71.90
2018-05-12T10:15:20.005Z,71.90
2018-05-12T10:18:00.492Z,73.20
2018-05-12T10:20:41.580Z,75.30
2018-05-12T10:23:23.080Z,73.90
2018-05-12T10:26:03.376Z,73.20
2018-05-12T10:28:43.821Z,73.30
2018-05-12T10:31:24.102Z,73.30
2018-05-12T10:34:04.538Z,74.20
2018-05-12T10:36:44.980Z,74.10
2018-05-12T10:39:25.759Z,70.70
2018-05-12T10:42:06.102Z,70.70
2018-05-12T10:44:46.503Z,70.40
2018-05-12T10:47:26.826Z,70.00
2018-05-12T10:50:07.172Z,68.50
2018-05-12T10:52:47.560Z,68.90
2018-05-12T10:55:29.189Z,69.40
2018-05-12T10:58:09.574Z,70.10
2018-05-12T11:00:49.892Z,70.30
2018-05-12T11:03:30.536Z,69.40
2018-05-12T11:06:11.009Z,69.00
2018-05-12T11:08:52.385Z,69.40
2018-05-12T11:11:35.772Z,69.00
2018-05-12T11:14:16.299Z,68.70
2018-05-12T11:16:56.757Z,68.80
2018-05-12T11:19:37.041Z,68.90
2018-05-12T11:22:18.181Z,68.90
2018-05-12T11:24:58.708Z,68.80
2018-05-12T11:27:39.027Z,68.70
2018-05-12T11:30:19.369Z,68.60
2018-05-12T11:33:00.980Z,68.90
2018-05-12T11:35:41.349Z,69.30
2018-05-12T11:38:22.626Z,69.20
2018-05-12T11:41:03.245Z,69.10
2018-05-12T11:43:43.569Z,68.50
2018-05-12T11:46:23.888Z,68.60
2018-05-12T11:49:04.091Z,68.10
2018-05-12T11:51:44.560Z,68.20
2018-05-12T11:54:25.268Z,68.40
2018-05-12T11:57:05.725Z,67.90
2018-05-12T11:59:46.046Z,67.70
2018-05-12T12:02:26.514Z,67.70
2018-05-12T12:05:06.858Z,68.10
2018-05-12T12:07:47.186Z,68.30
2018-05-12T12:10:27.508Z,69.40
2018-05-12T12:13:07.900Z,69.00
2018-05-12T12:15:49.008Z,68.70
2018-05-12T12:18:29.370Z,68.10
2018-05-12T12:21:09.709Z,68.20
2018-05-12T12:23:50.989Z,69.00
2018-05-12T12:26:31.446Z,69.30
2018-05-12T12:29:11.822Z,69.70
2018-05-12T12:31:53.557Z,71.00
2018-05-12T12:34:34.704Z,72.00
2018-05-12T12:37:16.227Z,72.10
2018-05-12T12:39:56.592Z,72.10
2018-05-12T12:42:37.062Z,73.10
2018-05-12T12:45:17.538Z,73.90
2018-05-12T12:47:57.851Z,73.90
2018-05-12T12:50:38.287Z,73.90
2018-05-12T12:53:18.769Z,73.90
2018-05-12T12:55:59.116Z,73.80
2018-05-12T12:58:39.581Z,73.50
2018-05-12T13:01:19.914Z,72.80
2018-05-12T13:04:01.115Z,72.30
2018-05-12T13:06:41.593Z,71.80
2018-05-12T13:09:22.497Z,71.90
2018-05-12T13:12:03.073Z,70.90
2018-05-12T13:14:43.434Z,70.20
2018-05-12T13:17:24.055Z,69.70
2018-05-12T13:20:05.147Z,68.90
2018-05-12T13:22:45.504Z,68.80
2018-05-12T13:25:26.068Z,68.80
2018-05-12T13:28:06.457Z,68.90
2018-05-12T13:30:46.810Z,68.50
2018-05-12T13:33:28.863Z,68.60
2018-05-12T13:36:09.154Z,69.30
2018-05-12T13:38:50.450Z,68.70
2018-05-12T13:41:31.325Z,68.50
2018-05-12T13:44:11.697Z,68.80
2018-05-12T13:46:53.459Z,68.50
2018-05-12T13:49:33.612Z,68.70
2018-05-12T13:52:14.051Z,68.40
2018-05-12T13:54:54.954Z,68.20
2018-05-12T13:57:35.306Z,67.90
2018-05-12T14:00:15.604Z,66.20
2018-05-12T14:02:56.427Z,66.10
2018-05-12T14:05:36.984Z,66.00
2018-05-12T14:08:17.357Z,65.80
2018-05-12T14:10:57.792Z,65.40
2018-05-12T14:13:38.333Z,64.10
2018-05-12T14:16:20.602Z,63.20
2018-05-12T14:19:01.559Z,58.70
2018-05-12T14:21:41.862Z,53.00
2018-05-12T14:24:22.707Z,51.50
2018-05-12T14:27:02.897Z,49.70
2018-05-12T14:29:43.212Z,49.10
2018-05-12T14:32:25.172Z,50.20
2018-05-12T14:35:05.510Z,50.00
2018-05-12T14:37:45.864Z,49.80
2018-05-12T14:40:26.522Z,49.50
2018-05-12T14:43:06.875Z,50.50
2018-05-12T14:45:47.294Z,49.20
2018-05-12T14:48:34.560Z,47.70
2018-05-12T14:51:14.982Z,48.80
2018-05-12T14:53:55.928Z,47.20
2018-05-12T14:56:36.541Z,47.70
2018-05-12T14:59:22.415Z,47.20
2018-05-12T15:02:02.727Z,46.30
2018-05-12T15:04:43.182Z,46.40
2018-05-12T15:07:24.255Z,48.50
2018-05-12T15:10:04.502Z,47.10
2018-05-12T15:12:44.720Z,45.10
2018-05-12T15:15:25.412Z,46.30
2018-05-12T15:18:05.767Z,45.50
2018-05-12T15:20:46.121Z,46.40
2018-05-12T15:23:26.974Z,44.80
2018-05-12T15:26:07.524Z,44.40
2018-05-12T15:28:47.928Z,45.60
2018-05-12T15:31:28.244Z,45.10
2018-05-12T15:34:08.588Z,44.70
2018-05-12T15:36:49.035Z,44.90
2018-05-12T15:39:29.367Z,43.60
2018-05-12T15:42:10.605Z,43.50
2018-05-12T15:44:50.893Z,42.90
2018-05-12T15:47:31.394Z,41.70
2018-05-12T15:50:12.517Z,41.40
2018-05-12T15:52:53.717Z,40.80
2018-05-12T15:55:34.047Z,41.00
2018-05-12T15:58:14.385Z,41.90
2018-05-12T16:00:55.368Z,42.70
2018-05-12T16:03:35.792Z,42.70
2018-05-12T16:06:16.221Z,42.60
2018-05-12T16:08:57.229Z,43.00
2018-05-12T16:11:37.455Z,43.10
2018-05-12T16:14:18.189Z,43.20
2018-05-12T16:16:58.514Z,43.10
2018-05-12T16:19:38.866Z,43.50
2018-05-12T16:22:19.223Z,43.40
2018-05-12T16:24:59.542Z,43.50
2018-05-12T16:27:40.691Z,43.90
2018-05-12T16:30:21.496Z,43.20
2018-05-12T16:33:01.908Z,42.20
2018-05-12T16:35:42.204Z,43.20
2018-05-12T16:38:23.492Z,42.40
2018-05-12T16:41:03.812Z,42.90
2018-05-12T16:43:43.993Z,42.70
2018-05-12T16:46:24.367Z,42.80
2018-05-12T16:49:04.589Z,43.30
2018-05-12T16:51:45.178Z,43.70
2018-05-12T16:54:25.966Z,43.90
2018-05-12T16:57:06.559Z,44.10
2018-05-12T16:59:47.641Z,44.40
2018-05-12T17:02:28.014Z,44.20
2018-05-12T17:05:08.424Z,44.60
2018-05-12T17:07:48.811Z,45.00
2018-05-12T17:10:29.147Z,45.20
2018-05-12T17:13:09.752Z,45.30
2018-05-12T17:15:50.091Z,45.70
2018-05-12T17:18:32.569Z,46.10
2018-05-12T17:21:13.629Z,46.10
2018-05-12T17:23:55.166Z,45.80
2018-05-12T17:26:35.511Z,46.00
2018-05-12T17:29:16.876Z,46.40
2018-05-12T17:31:57.212Z,46.10
2018-05-12T17:34:37.663Z,46.70
2018-05-12T17:37:18.018Z,46.70
2018-05-12T17:39:58.404Z,47.00
2018-05-12T17:42:40.177Z,47.20
2018-05-12T17:45:20.501Z,47.60
2018-05-12T17:48:00.975Z,47.60
2018-05-12T17:50:42.527Z,48.20
2018-05-12T17:53:23.562Z,48.10
2018-05-12T17:56:03.851Z,48.00
2018-05-12T17:58:44.022Z,49.20
2018-05-12T18:01:24.403Z,49.40
2018-05-12T18:04:05.551Z,50.30
2018-05-12T18:06:45.933Z,50.20
2018-05-12T18:09:26.760Z,50.10
2018-05-12T18:12:07.281Z,51.30
2018-05-12T18:14:47.593Z,51.20
2018-05-12T18:17:28.626Z,51.70
2018-05-12T18:20:08.921Z,51.40
2018-05-12T18:22:49.196Z,51.10
2018-05-12T18:25:29.492Z,50.90
2018-05-12T18:28:09.781Z,50.60
2018-05-12T18:30:50.243Z,50.00
2018-05-12T18:33:31.189Z,50.00
2018-05-12T18:36:11.506Z,50.00
2018-05-12T18:38:52.616Z,50.20
2018-05-12T18:41:32.983Z,49.80
2018-05-12T18:44:13.351Z,50.80
2018-05-12T18:46:55.066Z,51.70
2018-05-12T18:49:35.376Z,51.30
2018-05-12T18:52:15.679Z,51.20
2018-05-12T18:54:56.477Z,50.80
2018-05-12T18:57:36.852Z,51.20
2018-05-12T19:00:17.228Z,50.60
2018-05-12T19:02:57.664Z,50.30
2018-05-12T19:05:37.989Z,49.50
2018-05-12T19:08:19.160Z,49.60
2018-05-12T19:10:59.534Z,49.40
2018-05-12T19:13:39.986Z,51.00
2018-05-12T19:16:20.512Z,51.00
2018-05-12T19:19:01.428Z,54.10
2018-05-12T19:21:41.891Z,55.10
2018-05-12T19:24:23.045Z,55.00
2018-05-12T19:27:04.365Z,55.20
2018-05-12T19:29:44.744Z,55.30
2018-05-12T19:32:25.096Z,54.60
2018-05-12T19:35:05.536Z,55.20
2018-05-12T19:37:46.765Z,55.40
2018-05-12T19:40:27.269Z,55.20
2018-05-12T19:43:07.728Z,55.50
2018-05-12T19:45:49.149Z,55.20
2018-05-12T19:48:35.511Z,55.50
2018-05-12T19:51:15.818Z,56.60
2018-05-12T19:53:57.113Z,57.60
2018-05-12T19:56:37.535Z,58.10
2018-05-12T19:59:17.848Z,56.90
2018-05-12T20:01:59.112Z,55.30
2018-05-12T20:04:39.597Z,55.80
2018-05-12T20:07:19.929Z,54.80
2018-05-12T20:10:01.333Z,55.20
2018-05-12T20:12:42.473Z,58.30
2018-05-12T20:15:23.448Z,56.00
2018-05-12T20:18:03.898Z,55.20
2018-05-12T20:20:44.344Z,53.90
2018-05-12T20:23:25.185Z,53.10
2018-05-12T20:26:05.508Z,54.40
2018-05-12T20:28:45.918Z,55.20
2018-05-12T20:31:29.775Z,55.90
2018-05-12T20:34:10.072Z,56.20
2018-05-12T20:36:50.536Z,56.30
2018-05-12T20:39:31.146Z,56.30
2018-05-12T20:42:11.819Z,56.50
2018-05-12T20:44:52.970Z,56.90
2018-05-12T20:47:34.248Z,57.10
2018-05-12T20:50:14.551Z,57.50
2018-05-12T20:52:55.043Z,57.70
2018-05-12T20:55:35.389Z,57.90
2018-05-12T20:58:15.822Z,58.30
2018-05-12T21:00:56.545Z,58.80
2018-05-12T21:03:36.983Z,59.10
2018-05-12T21:06:17.291Z,59.10
2018-05-12T21:08:58.406Z,59.20
2018-05-12T21:11:39.712Z,59.10
2018-05-12T21:14:20.059Z,60.40
2018-05-12T21:17:01.238Z,59.20
2018-05-12T21:19:41.737Z,59.30
2018-05-12T21:22:22.486Z,59.60
2018-05-12T21:25:03.612Z,59.70
2018-05-12T21:27:43.989Z,59.60
2018-05-12T21:30:24.454Z,59.40
2018-05-12T21:33:05.436Z,59.40
2018-05-12T21:35:45.886Z,59.20
2018-05-12T21:38:27.299Z,59.20
2018-05-12T21:41:07.842Z,59.20
2018-05-12T21:43:48.285Z,59.30
2018-05-12T21:46:28.655Z,59.80
2018-05-12T21:49:09.046Z,60.00
2018-05-12T21:51:49.433Z,60.00
2018-05-12T21:54:29.914Z,60.30
2018-05-12T21:57:11.137Z,60.90
2018-05-12T21:59:52.493Z,61.00
2018-05-12T22:02:32.933Z,61.40
2018-05-12T22:05:14.112Z,61.60
2018-05-12T22:07:54.609Z,61.80
2018-05-12T22:10:34.872Z,62.30
2018-05-12T22:13:15.374Z,62.80
2018-05-12T22:15:55.925Z,62.80
2018-05-12T22:18:41.342Z,62.80
2018-05-12T22:21:21.640Z,63.00
2018-05-12T22:24:02.034Z,62.70
2018-05-12T22:26:42.459Z,62.80
2018-05-12T22:29:23.513Z,62.80
2018-05-12T22:32:04.095Z,63.10
2018-05-12T22:34:44.362Z,63.50
2018-05-12T22:37:24.819Z,63.70
2018-05-12T22:40:05.279Z,64.00
2018-05-12T22:42:45.714Z,63.80
2018-05-12T22:45:26.835Z,63.90
2018-05-12T22:48:07.184Z,63.90
2018-05-12T22:50:47.394Z,64.00
2018-05-12T22:53:27.643Z,64.00
2018-05-12T22:56:08.141Z,64.20
2018-05-12T22:58:48.497Z,64.80
2018-05-12T23:01:28.957Z,65.30
2018-05-12T23:04:09.371Z,65.40
2018-05-12T23:06:49.725Z,65.60
2018-05-12T23:09:30.191Z,65.90
2018-05-12T23:12:10.645Z,65.90
2018-05-12T23:14:51.733Z,66.70
2018-05-12T23:17:32.268Z,66.60
2018-05-12T23:20:12.448Z,66.80
2018-05-12T23:22:53.507Z,67.20
2018-05-12T23:25:34.346Z,67.60
2018-05-12T23:28:14.672Z,68.00
2018-05-12T23:30:55.433Z,68.40
2018-05-12T23:33:35.830Z,68.80
2018-05-12T23:36:16.079Z,69.00
2018-05-12T23:38:56.754Z,69.60
2018-05-12T23:41:37.129Z,69.60
2018-05-12T23:44:17.331Z,69.60
2018-05-12T23:46:57.693Z,70.00
2018-05-12T23:49:38.569Z,69.90
2018-05-12T23:52:18.918Z,70.10
2018-05-12T23:54:59.260Z,70.30
2018-05-12T23:57:39.429Z,70.40
